Terminal Aerodrome Forecast
Issued by NWS

Home | Current Version | Previous Version | Text Only | Print | Product List | Glossary On
Versions: 1 2 3 4 5 6 7 8 9 10 11 12 13 14 15 16 17 18 19 20 21 22
000
FTUS43 KJKL 072338
TAFSME
TAF
KSME 072338Z 0800/0824 VRB03KT P6SM FEW090 SCT200
     FM080600 VRB03KT P6SM SCT080 BKN100
     FM080900 VRB06KT P6SM -SHSN BKN070 BKN080
     FM081600 29008KT P6SM SCT250=

USA.gov is the U.S. government's official web portal to all federal, state and local government web resources and services.